Time;durP1;ratioP1;P1;durP2;ratioP2;P2;SDS_P1;SDS_P2;PMS_P1;PMS_P2;Temp;Humidity;BMP_temperature;BMP_pressure;BME280_temperature;BME280_humidity;BME280_pressure;Samples;Min_cycle;Max_cycle;Signal;HPM_P1;HPM_P2
2022/12/14 00:02:21;;;;;;;12.43;7.95;;;;;;;-1.59;100.00;99307.50;5069604;28;20261;-75
2022/12/14 00:04:49;;;;;;;13.68;8.60;;;;;;;-1.68;100.00;99297.06;5073319;28;20229;-73
2022/12/14 00:07:15;;;;;;;15.30;10.23;;;;;;;-1.72;100.00;99287.44;5071415;28;20226;-71
2022/12/14 00:09:42;;;;;;;12.85;8.65;;;;;;;-1.76;100.00;99297.19;5072235;28;20216;-74
2022/12/14 00:12:08;;;;;;;13.50;8.45;;;;;;;-1.70;100.00;99296.19;5068656;28;20197;-73
2022/12/14 00:14:35;;;;;;;12.52;8.27;;;;;;;-1.71;100.00;99299.75;5072084;28;20194;-72
2022/12/14 00:17:02;;;;;;;13.00;8.00;;;;;;;-1.76;100.00;99302.44;5072043;28;20288;-74
2022/12/14 00:19:28;;;;;;;9.63;6.80;;;;;;;-1.76;100.00;99283.97;5088563;28;20240;-74
2022/12/14 00:21:56;;;;;;;13.88;8.02;;;;;;;-1.74;100.00;99284.84;5072614;28;20205;-74
2022/12/14 00:24:23;;;;;;;13.77;7.85;;;;;;;-1.76;100.00;99291.91;5073382;28;20249;-73
2022/12/14 00:26:49;;;;;;;13.65;7.85;;;;;;;-1.75;100.00;99283.06;5073182;28;20215;-75
2022/12/14 00:29:16;;;;;;;15.40;9.05;;;;;;;-1.77;100.00;99273.44;5072237;28;20268;-74
2022/12/14 00:31:43;;;;;;;14.18;8.00;;;;;;;-1.81;100.00;99274.34;5068746;28;20220;-73
2022/12/14 00:34:09;;;;;;;12.45;7.32;;;;;;;-1.76;100.00;99276.06;5068025;28;20290;-73
2022/12/14 00:36:36;;;;;;;12.43;7.63;;;;;;;-1.72;100.00;99275.13;5063889;28;20308;-74
2022/12/14 00:39:05;;;;;;;12.10;7.45;;;;;;;-1.72;100.00;99272.50;5060640;28;20568;-72
2022/12/14 00:41:31;;;;;;;13.52;7.20;;;;;;;-1.65;100.00;99267.09;5058227;28;20197;-72
2022/12/14 00:43:58;;;;;;;12.95;7.45;;;;;;;-1.59;100.00;99262.59;5056676;28;20236;-76
2022/12/14 00:46:24;;;;;;;10.85;6.57;;;;;;;-1.56;100.00;99251.13;5056098;28;20239;-75
2022/12/14 00:48:51;;;;;;;12.10;7.15;;;;;;;-1.59;100.00;99254.69;5057207;28;20344;-75
2022/12/14 00:51:18;;;;;;;10.15;7.22;;;;;;;-1.59;100.00;99256.47;5056604;28;20227;-74
2022/12/14 00:53:44;;;;;;;12.80;7.57;;;;;;;-1.59;100.00;99259.09;5057634;28;20203;-72
2022/12/14 00:56:12;;;;;;;11.30;7.50;;;;;;;-1.49;100.00;99256.31;5055600;28;20305;-73
2022/12/14 00:58:39;;;;;;;11.90;8.02;;;;;;;-1.55;100.00;99260.81;5056883;28;20311;-73
2022/12/14 01:01:07;;;;;;;11.57;7.85;;;;;;;-1.59;100.00;99257.31;5053950;28;20203;-74
2022/12/14 01:03:34;;;;;;;14.43;8.20;;;;;;;-1.53;100.00;99245.81;5056671;28;20228;-75
2022/12/14 01:06:02;;;;;;;14.00;8.77;;;;;;;-1.57;100.00;99244.13;5058146;28;20608;-74
2022/12/14 01:08:34;;;;;;;12.85;8.95;;;;;;;-1.59;100.00;99246.75;5053805;28;20203;-74
2022/12/14 01:11:03;;;;;;;11.15;7.82;;;;;;;-1.56;100.00;99244.09;5050879;28;20250;-74
2022/12/14 01:13:31;;;;;;;13.77;8.05;;;;;;;-1.49;100.00;99245.75;5057251;28;20223;-73
2022/12/14 01:16:03;;;;;;;18.77;9.82;;;;;;;-1.51;100.00;99239.63;5053106;28;20767;-75
2022/12/14 01:18:29;;;;;;;15.82;8.50;;;;;;;-1.54;100.00;99244.97;5059682;28;20276;-73
2022/12/14 01:20:56;;;;;;;15.75;9.80;;;;;;;-1.54;100.00;99259.91;5059717;28;20592;-72
2022/12/14 01:23:22;;;;;;;14.85;9.02;;;;;;;-1.57;100.00;99257.31;5056595;28;20199;-75
2022/12/14 01:25:49;;;;;;;14.50;9.05;;;;;;;-1.56;100.00;99251.13;5059163;28;20311;-76
2022/12/14 01:28:16;;;;;;;16.10;9.60;;;;;;;-1.56;100.00;99244.09;5056798;28;20213;-76
2022/12/14 01:30:44;;;;;;;17.20;11.25;;;;;;;-1.56;100.00;99236.19;5056527;28;20227;-74
2022/12/14 01:33:10;;;;;;;12.80;9.52;;;;;;;-1.56;100.00;99232.66;5057464;28;20235;-74
2022/12/14 01:35:37;;;;;;;12.57;8.90;;;;;;;-1.56;100.00;99230.91;5057264;28;20227;-74
2022/12/14 01:38:03;;;;;;;16.42;10.05;;;;;;;-1.54;100.00;99223.84;5050967;28;20230;-74
2022/12/14 01:40:30;;;;;;;15.35;9.38;;;;;;;-1.54;100.00;99213.28;5058249;28;20227;-73
2022/12/14 01:42:56;;;;;;;15.40;9.80;;;;;;;-1.55;100.00;99213.28;5057704;28;20213;-73
2022/12/14 01:45:23;;;;;;;13.93;8.32;;;;;;;-1.54;100.00;99215.00;5063899;28;20204;-73
2022/12/14 01:47:55;;;;;;;14.80;9.55;;;;;;;-1.59;100.00;99208.94;5061048;28;20214;-73
2022/12/14 01:50:28;;;;;;;14.85;9.52;;;;;;;-1.55;100.00;99202.72;5062870;28;20197;-72
2022/12/14 01:52:58;;;;;;;15.55;8.57;;;;;;;-1.57;100.00;99208.00;5063688;28;20207;-73
2022/12/14 01:55:29;;;;;;;13.38;8.95;;;;;;;-1.54;100.00;99194.78;5064596;28;20246;-73
2022/12/14 01:58:02;;;;;;;15.90;10.00;;;;;;;-1.56;100.00;99191.28;5060143;28;20223;-72
2022/12/14 02:00:29;;;;;;;16.25;9.10;;;;;;;-1.61;100.00;99174.63;5061367;28;20298;-74
2022/12/14 02:03:02;;;;;;;17.02;10.20;;;;;;;-1.67;100.00;99164.19;5063206;28;20284;-74
2022/12/14 02:05:31;;;;;;;20.10;10.30;;;;;;;-1.69;100.00;99166.84;5062024;28;20227;-73
2022/12/14 02:07:57;;;;;;;14.50;9.43;;;;;;;-1.70;100.00;99164.22;5069070;28;20225;-73
2022/12/14 02:10:27;;;;;;;16.33;9.00;;;;;;;-1.69;100.00;99165.97;5067954;28;20264;-75
2022/12/14 02:13:01;;;;;;;12.13;8.13;;;;;;;-1.69;100.00;99160.69;5063249;28;20294;-74
2022/12/14 02:15:29;;;;;;;14.02;7.55;;;;;;;-1.64;100.00;99169.41;5068785;28;20211;-73
2022/12/14 02:17:57;;;;;;;13.98;9.35;;;;;;;-1.65;100.00;99169.41;5076548;28;20235;-74
2022/12/14 02:20:29;;;;;;;9.50;6.05;;;;;;;-1.42;100.00;99166.44;5068793;28;20200;-73
2022/12/14 02:23:35;;;;;;;10.82;7.50;;;;;;;-1.56;100.00;99169.28;5072866;28;20263;-75
2022/12/14 02:26:33;;;;;;;12.80;7.50;;;;;;;-1.57;100.00;99162.25;5067206;28;20260;-75
2022/12/14 02:29:30;;;;;;;11.65;7.45;;;;;;;-1.57;100.00;99152.56;5063166;28;20221;-74
2022/12/14 02:32:09;;;;;;;13.20;7.43;;;;;;;-1.49;100.00;99144.53;5001147;28;20454;-76
2022/12/14 02:34:48;;;;;;;10.73;7.10;;;;;;;-1.51;100.00;99131.34;4979515;28;20271;-74
2022/12/14 02:37:22;;;;;;;11.85;7.28;;;;;;;-1.58;100.00;99127.06;4987119;28;20317;-75
2022/12/14 02:40:00;;;;;;;12.15;7.00;;;;;;;-1.48;100.00;99133.94;4986432;28;20223;-74
2022/12/14 02:42:37;;;;;;;10.40;7.00;;;;;;;-1.42;100.00;99124.19;4992109;28;20271;-74
2022/12/14 02:45:12;;;;;;;10.07;6.15;;;;;;;-1.52;100.00;99123.44;4995282;28;20209;-74
2022/12/14 02:47:45;;;;;;;10.93;6.57;;;;;;;-1.53;100.00;99122.59;5002035;28;20214;-75
2022/12/14 02:50:17;;;;;;;9.35;5.45;;;;;;;-1.56;100.00;99119.09;4991809;28;20215;-75
2022/12/14 02:52:54;;;;;;;9.98;7.15;;;;;;;-1.53;100.00;99125.22;4991402;28;20264;-74
2022/12/14 02:55:27;;;;;;;9.55;6.95;;;;;;;-1.48;100.00;99130.44;4987308;28;20194;-77
2022/12/14 02:58:00;;;;;;;8.68;5.38;;;;;;;-1.52;100.00;99110.25;4985350;28;20208;-74
2022/12/14 03:00:31;;;;;;;9.65;6.13;;;;;;;-1.45;100.00;99109.25;4997724;28;20209;-74
2022/12/14 03:02:58;;;;;;;9.82;6.53;;;;;;;-1.43;100.00;99109.22;4995363;28;20204;-75
2022/12/14 03:05:25;;;;;;;9.23;5.60;;;;;;;-1.40;100.00;99102.13;4990969;28;20294;-73
2022/12/14 03:07:55;;;;;;;9.32;6.95;;;;;;;-1.41;100.00;99100.38;4998502;28;20200;-74
2022/12/14 03:10:30;;;;;;;9.38;5.95;;;;;;;-1.41;100.00;99096.88;5066145;28;20287;-74
2022/12/14 03:13:06;;;;;;;11.00;6.35;;;;;;;-1.33;100.00;99102.91;5064109;28;20199;-75
2022/12/14 03:15:38;;;;;;;10.48;6.22;;;;;;;-1.23;100.00;99099.16;5062118;28;20704;-75
2022/12/14 03:18:07;;;;;;;11.35;7.85;;;;;;;-1.28;100.00;99083.41;5060539;28;20289;-73
2022/12/14 03:20:37;;;;;;;9.52;6.75;;;;;;;-1.37;100.00;99077.44;5070936;28;20232;-73
2022/12/14 03:23:09;;;;;;;8.32;6.18;;;;;;;-1.35;100.00;99086.19;5074277;28;20196;-73
2022/12/14 03:25:43;;;;;;;11.68;7.07;;;;;;;-1.29;100.00;99088.72;5072043;28;20288;-74
2022/12/14 03:28:16;;;;;;;9.32;5.88;;;;;;;-1.34;100.00;99085.28;5072267;28;20208;-75
2022/12/14 03:30:50;;;;;;;7.80;6.15;;;;;;;-1.36;100.00;99084.44;5069208;28;20235;-76
2022/12/14 03:33:21;;;;;;;9.15;6.28;;;;;;;-1.38;100.00;99073.94;5057279;28;20665;-74
2022/12/14 03:35:55;;;;;;;8.73;6.15;;;;;;;-1.39;100.00;99063.38;5058360;28;20229;-75
2022/12/14 03:38:31;;;;;;;9.35;6.65;;;;;;;-1.42;100.00;99058.16;5056574;28;20327;-74
2022/12/14 03:41:22;;;;;;;12.68;6.90;;;;;;;-1.50;100.00;99056.50;5054719;28;20221;-74
2022/12/14 03:44:00;;;;;;;8.40;5.88;;;;;;;-1.48;100.00;99059.13;5057167;28;20216;-72
2022/12/14 03:46:38;;;;;;;8.80;6.20;;;;;;;-1.52;100.00;99058.31;5056097;28;20601;-74
2022/12/14 03:49:13;;;;;;;10.38;6.65;;;;;;;-1.58;100.00;99053.16;5054203;28;20795;-73
2022/12/14 03:51:52;;;;;;;10.48;6.53;;;;;;;-1.57;100.00;99060.16;5053827;28;20620;-74
2022/12/14 03:54:26;;;;;;;10.45;6.90;;;;;;;-1.59;100.00;99056.69;5056043;28;20205;-74
2022/12/14 03:57:00;;;;;;;12.60;7.43;;;;;;;-1.62;100.00;99048.81;5052768;28;20597;-73
2022/12/14 03:59:34;;;;;;;9.20;6.75;;;;;;;-1.52;100.00;99042.47;5053619;28;20219;-70
2022/12/14 04:02:07;;;;;;;10.10;7.07;;;;;;;-1.50;100.00;99048.59;5048860;28;20216;-73
2022/12/14 04:04:40;;;;;;;9.70;6.22;;;;;;;-1.45;100.00;99047.63;5056289;28;20607;-73
2022/12/14 04:07:15;;;;;;;12.82;7.22;;;;;;;-1.51;100.00;99041.59;5054958;28;20251;-72
2022/12/14 04:09:50;;;;;;;10.15;6.25;;;;;;;-1.49;100.00;99038.91;5061678;28;20219;-74
2022/12/14 04:20:49;;;;;;;13.85;7.07;;;;;;;-1.45;100.00;99035.31;5061717;28;20199;-73
2022/12/14 04:26:03;;;;;;;9.45;6.57;;;;;;;-1.44;100.00;99038.84;5055613;28;20214;-74
2022/12/14 04:26:11;;;;;;;10.07;7.20;;;;;;;-1.41;100.00;99036.13;5051529;28;20222;-74
2022/12/14 04:31:30;;;;;;;9.35;6.65;;;;;;;-1.41;100.00;99028.19;5047646;28;20298;-73
2022/12/14 04:34:04;;;;;;;9.68;6.43;;;;;;;-1.39;100.00;99031.69;5061291;28;20220;-74
2022/12/14 04:36:36;;;;;;;11.85;7.45;;;;;;;-1.32;100.00;99031.53;5058546;28;20587;-75
2022/12/14 04:39:06;;;;;;;10.50;7.25;;;;;;;-1.21;100.00;99041.91;5050922;28;20289;-72
2022/12/14 04:41:37;;;;;;;9.70;7.05;;;;;;;-1.21;100.00;99028.69;5053236;28;20300;-73
2022/12/14 04:44:12;;;;;;;13.07;6.15;;;;;;;-1.16;100.00;99033.88;5053794;28;20289;-75
2022/12/14 04:46:40;;;;;;;11.52;7.30;;;;;;;-1.16;100.00;99044.44;5056272;28;20656;-74
2022/12/14 04:49:17;;;;;;;11.05;7.63;;;;;;;-1.15;100.00;99033.88;5061800;28;20205;-74
2022/12/14 04:51:49;;;;;;;12.88;7.68;;;;;;;-1.17;100.00;99042.72;5062148;28;20339;-75
2022/12/14 04:54:22;;;;;;;9.82;6.88;;;;;;;-1.19;100.00;99034.81;5058127;28;20201;-74
2022/12/14 04:56:53;;;;;;;11.23;7.03;;;;;;;-1.15;100.00;99043.56;5065206;28;20217;-75
2022/12/14 04:59:19;;;;;;;12.57;7.55;;;;;;;-1.15;100.00;99035.63;5069023;28;20232;-74
2022/12/14 05:01:58;;;;;;;11.40;7.35;;;;;;;-1.14;100.00;99032.94;5061807;28;20204;-74
2022/12/14 05:04:53;;;;;;;14.13;7.95;;;;;;;-1.23;100.00;99038.41;5068536;28;20201;-73
2022/12/14 05:07:30;;;;;;;11.43;7.75;;;;;;;-1.21;100.00;99041.03;5065529;28;20228;-73
2022/12/14 05:10:00;;;;;;;11.65;6.80;;;;;;;-1.19;100.00;99045.38;5062540;28;20279;-73
2022/12/14 05:12:36;;;;;;;11.98;8.02;;;;;;;-1.18;100.00;99040.97;5063098;28;20191;-73
2022/12/14 05:15:08;;;;;;;11.15;7.70;;;;;;;-1.25;100.00;99040.22;5059595;28;20206;-73
2022/12/14 05:17:35;;;;;;;12.07;7.93;;;;;;;-1.19;100.00;99042.75;5058199;28;20217;-74
2022/12/14 05:20:05;;;;;;;13.20;7.82;;;;;;;-1.15;100.00;99041.78;5065683;28;20213;-74
2022/12/14 05:22:31;;;;;;;15.05;9.20;;;;;;;-1.12;100.00;99041.72;5062064;28;20255;-75
2022/12/14 05:24:58;;;;;;;15.45;9.82;;;;;;;-1.15;100.00;99036.50;5061187;28;20211;-74
2022/12/14 05:27:24;;;;;;;15.05;8.85;;;;;;;-1.13;100.00;99036.44;5060013;28;20251;-74
2022/12/14 05:29:51;;;;;;;11.38;7.80;;;;;;;-1.12;100.00;99035.56;5055947;28;20200;-75
2022/12/14 05:32:18;;;;;;;10.95;7.78;;;;;;;-1.15;100.00;99036.50;5062088;28;20193;-76
2022/12/14 05:34:44;;;;;;;12.77;8.23;;;;;;;-1.10;100.00;99024.06;5058687;28;20203;-76
2022/12/14 05:37:12;;;;;;;12.45;8.07;;;;;;;-1.08;100.00;99027.56;5057453;28;20285;-75
2022/12/14 05:39:39;;;;;;;16.00;8.02;;;;;;;-1.11;100.00;99026.72;5063815;28;20312;-75
2022/12/14 05:42:05;;;;;;;12.75;8.38;;;;;;;-1.11;100.00;99017.06;5059724;28;20218;-73
2022/12/14 05:44:32;;;;;;;15.80;7.95;;;;;;;-1.02;100.00;99030.97;5064956;28;20221;-74
2022/12/14 05:46:58;;;;;;;13.10;8.27;;;;;;;-1.10;100.00;99013.50;5076989;22;20230;-75
2022/12/14 05:49:25;;;;;;;10.50;7.47;;;;;;;-1.13;100.00;99013.56;5033324;28;20202;-75
2022/12/14 05:51:52;;;;;;;13.88;7.82;;;;;;;-1.14;100.00;99005.66;5031916;28;20561;-71
2022/12/14 05:54:19;;;;;;;13.27;8.35;;;;;;;-1.15;100.00;98996.88;5030795;28;20255;-74
2022/12/14 05:56:46;;;;;;;16.27;9.10;;;;;;;-1.12;100.00;98988.88;5041653;28;20308;-74
2022/12/14 05:59:14;;;;;;;13.63;8.25;;;;;;;-1.06;100.00;98986.13;5036486;28;20221;-74
2022/12/14 06:01:41;;;;;;;13.50;8.48;;;;;;;-1.07;100.00;98979.06;5032947;28;20202;-76
2022/12/14 06:04:07;;;;;;;14.40;8.35;;;;;;;-1.06;100.00;98967.63;5030185;28;20202;-75
2022/12/14 06:06:34;;;;;;;13.75;8.48;;;;;;;-1.08;100.00;98965.91;5033951;28;20627;-73
2022/12/14 06:09:01;;;;;;;16.55;8.60;;;;;;;-1.11;100.00;98955.38;5030195;28;20206;-75
2022/12/14 06:11:29;;;;;;;15.48;8.57;;;;;;;-1.06;100.00;98951.75;5032798;28;20194;-74
2022/12/14 06:13:55;;;;;;;15.23;9.07;;;;;;;-1.06;100.00;98957.03;5036374;28;20678;-74
2022/12/14 06:16:24;;;;;;;14.95;9.45;;;;;;;-1.04;100.00;98949.09;5029611;28;21068;-74
2022/12/14 06:18:53;;;;;;;13.38;8.70;;;;;;;-1.10;100.00;98947.44;5032500;28;20682;-73
2022/12/14 06:21:22;;;;;;;13.90;8.38;;;;;;;-1.11;100.00;98940.44;5040253;28;20305;-73
2022/12/14 06:23:49;;;;;;;11.30;8.23;;;;;;;-1.11;100.00;98931.63;5055256;28;20208;-72
2022/12/14 06:26:16;;;;;;;12.43;8.02;;;;;;;-1.14;100.00;98927.25;5042693;28;20304;-74
2022/12/14 06:28:44;;;;;;;13.73;8.98;;;;;;;-1.12;100.00;98933.38;5043383;28;20198;-74
2022/12/14 06:31:15;;;;;;;14.32;9.02;;;;;;;-1.06;100.00;98927.97;5034557;28;20261;-75
2022/12/14 06:33:42;;;;;;;16.60;9.40;;;;;;;-1.13;100.00;98921.09;5038742;28;20204;-75
2022/12/14 06:36:16;;;;;;;15.50;9.18;;;;;;;-1.11;100.00;98923.69;5036283;28;20684;-74
2022/12/14 06:38:43;;;;;;;17.52;10.55;;;;;;;-1.22;100.00;98923.94;5036355;28;20283;-74
2022/12/14 06:41:09;;;;;;;15.73;9.65;;;;;;;-1.19;100.00;98920.34;5036204;28;20246;-74
2022/12/14 06:43:36;;;;;;;13.82;7.82;;;;;;;-1.17;100.00;98903.56;5036474;28;20202;-76
2022/12/14 06:46:08;;;;;;;13.52;8.45;;;;;;;-1.09;100.00;98893.69;5032201;28;20206;-74
2022/12/14 06:48:35;;;;;;;14.15;8.20;;;;;;;-1.11;100.00;98905.19;5038544;28;20306;-75
2022/12/14 06:51:02;;;;;;;14.38;8.38;;;;;;;-1.18;100.00;98895.66;5048253;28;20615;-75
2022/12/14 06:53:29;;;;;;;16.35;9.10;;;;;;;-1.18;100.00;98904.44;5049467;28;20201;-75
2022/12/14 06:56:05;;;;;;;13.13;8.63;;;;;;;-1.21;100.00;98893.97;5045993;28;20232;-74
2022/12/14 06:58:32;;;;;;;19.95;11.25;;;;;;;-1.15;100.00;98892.97;5049968;28;20655;-74
2022/12/14 07:01:01;;;;;;;16.77;9.88;;;;;;;-1.10;100.00;98883.16;5047974;28;20230;-76
2022/12/14 07:03:29;;;;;;;14.60;9.05;;;;;;;-1.17;100.00;98871.88;5040544;28;20218;-74
2022/12/14 07:05:56;;;;;;;14.70;9.00;;;;;;;-1.13;100.00;98880.56;5045442;28;20203;-73
2022/12/14 07:08:24;;;;;;;12.68;8.85;;;;;;;-1.14;100.00;98878.84;5058502;28;20552;-74
2022/12/14 07:10:51;;;;;;;12.45;8.70;;;;;;;-1.05;100.00;98868.94;5050183;28;20221;-76
2022/12/14 07:13:17;;;;;;;12.90;8.85;;;;;;;-0.96;100.00;98875.78;5047633;28;20240;-72
2022/12/14 07:15:45;;;;;;;12.90;9.07;;;;;;;-0.97;100.00;98879.34;5058238;28;20312;-75
2022/12/14 07:18:11;;;;;;;19.52;9.88;;;;;;;-0.97;100.00;98875.81;5048073;28;20232;-75
2022/12/14 07:20:39;;;;;;;14.60;9.27;;;;;;;-1.01;100.00;98864.47;5049384;28;20315;-73
2022/12/14 07:23:05;;;;;;;16.30;9.15;;;;;;;-1.03;100.00;98854.84;5045645;28;20233;-74
2022/12/14 07:25:32;;;;;;;17.20;9.55;;;;;;;-1.00;100.00;98854.75;5062184;28;20197;-75
2022/12/14 07:27:59;;;;;;;14.77;9.60;;;;;;;-0.96;100.00;98861.72;5041673;28;20228;-74
2022/12/14 07:30:25;;;;;;;20.83;9.23;;;;;;;-0.97;100.00;98860.84;5035930;28;20285;-75
2022/12/14 07:32:52;;;;;;;17.65;8.77;;;;;;;-0.98;100.00;98855.59;5038685;28;20220;-73
2022/12/14 07:35:18;;;;;;;17.90;9.38;;;;;;;-0.93;100.00;98851.06;5045817;28;20202;-72
2022/12/14 07:37:49;;;;;;;13.40;9.00;;;;;;;-0.92;100.00;98858.97;5051472;28;20225;-74
2022/12/14 07:40:16;;;;;;;16.40;8.00;;;;;;;-0.93;100.00;98851.91;5043756;28;20312;-74
2022/12/14 07:42:42;;;;;;;13.98;9.85;;;;;;;-0.91;100.00;98852.75;5037293;28;20198;-75
2022/12/14 07:45:10;;;;;;;17.00;9.88;;;;;;;-0.85;100.00;98857.03;5043099;28;20200;-73
2022/12/14 07:47:36;;;;;;;16.60;9.95;;;;;;;-0.83;100.00;98859.66;5050476;28;20229;-74
2022/12/14 07:50:03;;;;;;;14.60;9.10;;;;;;;-0.76;100.00;98854.19;5044473;28;20263;-73
2022/12/14 07:52:30;;;;;;;15.68;8.55;;;;;;;-0.76;100.00;98856.81;5042942;28;20268;-74
2022/12/14 07:54:57;;;;;;;15.23;9.15;;;;;;;-0.74;100.00;98862.94;5050889;28;20208;-74
2022/12/14 07:57:24;;;;;;;21.08;10.05;;;;;;;-0.76;100.00;98864.75;5039706;28;20354;-72
2022/12/14 07:59:50;;;;;;;15.60;8.98;;;;;;;-0.67;100.00;98872.47;5035365;28;20230;-74
2022/12/14 08:02:17;;;;;;;14.10;8.55;;;;;;;-0.76;100.00;98885.03;5035191;28;20204;-73
2022/12/14 08:04:44;;;;;;;14.45;9.40;;;;;;;-0.71;100.00;98897.22;5035917;28;20607;-74
2022/12/14 08:07:10;;;;;;;18.77;10.05;;;;;;;-0.72;100.00;98914.00;5038405;28;20242;-73
2022/12/14 08:09:37;;;;;;;20.38;10.90;;;;;;;-0.77;100.00;98921.19;5037219;28;20266;-74
2022/12/14 08:12:05;;;;;;;14.68;10.05;;;;;;;-0.78;100.00;98929.13;5034997;28;20206;-74
2022/12/14 08:14:32;;;;;;;16.23;9.98;;;;;;;-0.73;100.00;98917.53;5037467;28;20208;-75
2022/12/14 08:16:58;;;;;;;17.65;9.52;;;;;;;-0.75;100.00;98922.00;5041840;28;20218;-74
2022/12/14 08:19:25;;;;;;;13.20;9.63;;;;;;;-0.75;100.00;98911.41;5037244;28;20209;-74
2022/12/14 08:21:51;;;;;;;14.40;10.18;;;;;;;-0.80;100.00;98902.72;5035274;28;20212;-76
2022/12/14 08:24:18;;;;;;;15.82;9.90;;;;;;;-0.77;100.00;98913.25;5047964;28;20212;-74
2022/12/14 08:26:45;;;;;;;14.48;9.40;;;;;;;-0.82;100.00;98907.19;5036838;28;20677;-75
2022/12/14 08:29:14;;;;;;;17.52;10.52;;;;;;;-0.82;100.00;98908.97;5047000;28;20208;-73
2022/12/14 08:31:41;;;;;;;18.10;10.77;;;;;;;-0.79;100.00;98911.53;5052975;28;20640;-73
2022/12/14 08:34:08;;;;;;;16.58;10.88;;;;;;;-0.75;100.00;98913.19;5047627;28;20274;-74
2022/12/14 08:36:35;;;;;;;16.42;12.18;;;;;;;-0.71;100.00;98912.22;5025647;28;20225;-74
2022/12/14 08:39:05;;;;;;;18.80;11.73;;;;;;;-0.65;100.00;98920.03;5036980;28;20285;-73
2022/12/14 08:41:32;;;;;;;16.67;10.50;;;;;;;-0.69;100.00;98918.34;5037283;28;20683;-73
2022/12/14 08:44:00;;;;;;;18.63;10.80;;;;;;;-0.67;100.00;98920.06;5035270;28;20294;-73
2022/12/14 08:46:30;;;;;;;16.92;10.65;;;;;;;-0.78;100.00;98922.06;5048940;28;20229;-74
2022/12/14 08:48:59;;;;;;;18.17;11.15;;;;;;;-0.75;100.00;98907.91;5043174;28;20288;-75
2022/12/14 08:51:28;;;;;;;17.45;11.27;;;;;;;-0.78;100.00;98913.28;5050435;28;20862;-74
2022/12/14 08:53:56;;;;;;;16.08;10.57;;;;;;;-0.85;100.00;98904.63;5053942;28;20293;-75
2022/12/14 08:56:24;;;;;;;19.48;10.93;;;;;;;-0.77;100.00;98897.41;5041634;28;20268;-73
2022/12/14 08:58:51;;;;;;;18.13;10.27;;;;;;;-0.73;100.00;98895.53;5042825;28;20206;-72
2022/12/14 09:01:20;;;;;;;16.77;11.00;;;;;;;-0.71;100.00;98896.38;5044642;28;20223;-74
2022/12/14 09:03:48;;;;;;;18.75;11.80;;;;;;;-0.79;100.00;98893.91;5035602;28;20202;-74
2022/12/14 09:06:18;;;;;;;16.98;10.80;;;;;;;-0.87;100.00;98901.13;5027162;28;20226;-74
2022/12/14 09:08:44;;;;;;;20.85;12.05;;;;;;;-0.78;100.00;98902.72;5036202;28;20208;-73
2022/12/14 09:11:13;;;;;;;18.13;11.15;;;;;;;-0.90;100.00;98891.50;5045856;28;20209;-74
2022/12/14 09:13:40;;;;;;;16.80;11.15;;;;;;;-0.82;100.00;98891.31;5049115;28;20194;-75
2022/12/14 09:16:11;;;;;;;18.02;11.52;;;;;;;-0.87;100.00;98885.28;5035642;28;20225;-75
2022/12/14 09:18:38;;;;;;;18.65;11.95;;;;;;;-0.82;100.00;98893.97;5030324;28;20197;-74
2022/12/14 09:21:06;;;;;;;22.05;11.65;;;;;;;-0.82;100.00;98895.75;5046870;28;20319;-74
2022/12/14 09:23:35;;;;;;;18.88;11.80;;;;;;;-0.82;100.00;98899.25;5048495;28;20262;-74
2022/12/14 09:26:03;;;;;;;17.17;11.73;;;;;;;-0.73;100.00;98906.97;5054067;28;20209;-75
2022/12/14 09:28:32;;;;;;;19.17;12.32;;;;;;;-0.61;100.00;98916.41;5039169;28;20292;-76
2022/12/14 09:31:00;;;;;;;18.17;12.40;;;;;;;-0.57;100.00;98925.13;5040337;28;20209;-73
2022/12/14 09:33:28;;;;;;;20.45;12.02;;;;;;;-0.57;100.00;98923.34;5043308;28;20621;-74
2022/12/14 09:35:59;;;;;;;17.35;11.88;;;;;;;-0.58;100.00;98912.81;5036293;28;20292;-74
2022/12/14 09:38:29;;;;;;;21.05;12.43;;;;;;;-0.67;100.00;98914.75;5035420;28;20651;-73
2022/12/14 09:40:59;;;;;;;20.25;11.48;;;;;;;-0.83;100.00;98915.16;5050035;28;20228;-73
2022/12/14 09:43:38;;;;;;;18.65;12.52;;;;;;;-0.71;100.00;98904.28;5044209;28;20210;-73
2022/12/14 09:46:19;;;;;;;19.23;12.10;;;;;;;-0.72;100.00;98897.28;5045559;28;20205;-74
2022/12/14 09:48:47;;;;;;;17.55;11.20;;;;;;;-0.67;100.00;98898.03;5027856;28;20201;-73
2022/12/14 09:51:16;;;;;;;19.70;12.02;;;;;;;-0.60;100.00;98901.41;5034497;28;20198;-73
2022/12/14 09:53:47;;;;;;;16.58;9.88;;;;;;;-0.77;100.00;98891.22;5029060;28;20232;-74
2022/12/14 09:56:17;;;;;;;19.45;12.25;;;;;;;-0.72;100.00;98886.72;5031245;28;20217;-74
2022/12/14 09:58:51;;;;;;;19.42;12.98;;;;;;;-0.74;100.00;98884.09;5039536;28;20197;-73
2022/12/14 10:01:39;;;;;;;17.23;12.23;;;;;;;-0.64;100.00;98888.25;5037650;28;20692;-73
2022/12/14 10:04:12;;;;;;;16.00;10.90;;;;;;;-0.55;100.00;98888.94;5022741;28;20257;-73
2022/12/14 10:06:44;;;;;;;20.35;10.73;;;;;;;-0.48;100.00;98885.22;5047762;28;20228;-75
2022/12/14 10:09:20;;;;;;;19.85;11.68;;;;;;;-0.58;100.00;98887.22;5047091;28;20212;-75
2022/12/14 10:11:52;;;;;;;20.92;10.55;;;;;;;-0.60;100.00;98878.47;5051966;28;20280;-75
2022/12/14 10:14:26;;;;;;;16.98;11.55;;;;;;;-0.52;100.00;98878.28;5050346;28;20197;-74
2022/12/14 10:17:04;;;;;;;16.05;11.18;;;;;;;-0.53;100.00;98880.06;5038826;28;20592;-75
2022/12/14 10:19:39;;;;;;;18.65;10.60;;;;;;;-0.32;100.00;98881.28;5042286;28;20190;-73
2022/12/14 10:22:12;;;;;;;18.27;11.00;;;;;;;-0.25;100.00;98874.94;5035395;28;20312;-72
2022/12/14 10:24:44;;;;;;;13.70;9.80;;;;;;;-0.23;100.00;98878.44;5041029;28;20217;-73
2022/12/14 10:27:17;;;;;;;20.60;10.93;;;;;;;-0.27;100.00;98873.22;5041231;28;20222;-74
2022/12/14 10:29:48;;;;;;;14.70;9.82;;;;;;;-0.23;100.00;98872.25;5039965;28;20196;-73
2022/12/14 10:32:21;;;;;;;18.38;10.27;;;;;;;-0.37;100.00;98869.97;5034639;28;20210;-73
2022/12/14 10:34:48;;;;;;;16.33;11.50;;;;;;;-0.39;100.00;98863.84;5040618;28;20245;-73
2022/12/14 10:37:24;;;;;;;19.52;11.02;;;;;;;-0.40;100.00;98866.53;5047426;28;20235;-72
2022/12/14 10:40:00;;;;;;;15.27;10.32;;;;;;;-0.25;100.00;98860.81;5058437;28;20193;-74
2022/12/14 10:42:35;;;;;;;15.90;10.50;;;;;;;-0.04;100.00;98860.28;5049749;28;20192;-74
2022/12/14 10:45:16;;;;;;;13.82;9.63;;;;;;;-0.09;100.00;98856.88;5047452;28;20186;-71
2022/12/14 10:47:47;;;;;;;17.35;10.77;;;;;;;-0.18;100.00;98848.31;5047867;28;20233;-73
2022/12/14 10:50:20;;;;;;;17.67;11.05;;;;;;;-0.16;100.00;98857.06;5056394;28;20225;-74
2022/12/14 10:52:52;;;;;;;14.32;10.43;;;;;;;-0.10;100.00;98849.84;5058233;28;20233;-74
2022/12/14 10:55:28;;;;;;;14.40;10.23;;;;;;;-0.12;100.00;98837.56;5048231;28;20198;-75
2022/12/14 10:57:55;;;;;;;16.55;10.02;;;;;;;-0.10;100.00;98856.91;5055008;28;20251;-74
2022/12/14 11:00:22;;;;;;;16.77;11.63;;;;;;;-0.09;100.00;98850.72;5044710;28;20202;-73
2022/12/14 11:02:52;;;;;;;16.55;10.35;;;;;;;0.00;100.00;98850.50;5049815;28;20210;-74
2022/12/14 11:05:28;;;;;;;13.70;10.18;;;;;;;0.11;100.00;98853.66;5039600;28;20197;-75
2022/12/14 11:07:55;;;;;;;14.93;9.88;;;;;;;0.12;100.00;98847.50;5028258;28;20626;-73
2022/12/14 11:10:26;;;;;;;14.35;10.45;;;;;;;0.03;100.00;98841.59;5032695;28;20194;-74
2022/12/14 11:13:05;;;;;;;17.17;10.75;;;;;;;0.09;100.00;98844.94;5038936;28;20197;-74
2022/12/14 11:15:36;;;;;;;17.50;11.48;;;;;;;0.05;100.00;98847.72;5050964;28;20216;-75
2022/12/14 11:18:06;;;;;;;18.85;11.38;;;;;;;0.15;100.00;98844.75;5033517;28;20259;-74
2022/12/14 11:20:33;;;;;;;21.92;10.98;;;;;;;0.10;100.00;98854.59;5035702;28;20613;-74
2022/12/14 11:23:09;;;;;;;17.90;11.45;;;;;;;-0.06;100.00;98858.59;5046424;28;20197;-74
2022/12/14 11:25:41;;;;;;;17.30;11.43;;;;;;;-0.07;100.00;98849.78;5052099;28;20202;-76
2022/12/14 11:28:23;;;;;;;18.05;11.82;;;;;;;-0.04;100.00;98847.03;5044952;28;20297;-73
2022/12/14 11:30:56;;;;;;;14.65;11.18;;;;;;;0.00;100.00;98839.91;5033595;28;20201;-74
2022/12/14 11:33:26;;;;;;;17.55;11.52;;;;;;;0.10;100.00;98841.38;5023182;28;20195;-75
2022/12/14 11:35:53;;;;;;;17.77;11.23;;;;;;;0.14;100.00;98835.06;5033441;28;20208;-74
2022/12/14 11:38:20;;;;;;;14.85;11.55;;;;;;;0.17;100.00;98831.47;5045933;28;20202;-74
2022/12/14 11:40:47;;;;;;;15.48;10.68;;;;;;;0.11;100.00;98829.84;5029072;28;20218;-75
2022/12/14 11:43:25;;;;;;;16.45;11.43;;;;;;;0.06;100.00;98829.13;5037002;28;20198;-74